.
WxDataArchive / Data Records for 2009-01-01
2008-12-31 January 2009 2009-01-02

Data Records for Thursday, 01 January 2009

Time	Temp	Chill	HIndex	Humid	Dewpt	 Wind 	HiWind	WindDir	Rain 	Barom 
-----	----	-----	------	-----	-----	------	------	-------	-----	----- 
00:00	18.1	18.1	18.1	68	9.3	0	0	---	0.00	30.427 
00:05	18.1	18.1	18.1	69	9.7	0	1	270	0.00	30.427 
00:10	18.1	18.1	18.1	68	9.3	0	1	270	0.00	30.424 
00:15	18.3	18.3	18.3	69	9.9	0	2	270	0.00	30.421 
00:20	18.3	18.3	18.3	68	9.5	0	1	270	0.00	30.421 
00:25	18.3	18.3	18.3	69	9.9	0	1	270	0.00	30.422 
00:30	18.3	18.3	18.3	69	9.9	0	1	270	0.00	30.422 
00:35	18.3	18.3	18.3	69	9.9	0	1	270	0.00	30.417 
00:40	18.3	18.3	18.3	69	9.9	0	1	270	0.00	30.417 
00:45	18.3	18.3	18.3	69	9.9	0	2	270	0.00	30.419 
00:50	18.3	18.3	18.3	69	9.9	0	1	270	0.00	30.421 
00:55	18.3	18.3	18.3	69	9.9	0	1	270	0.00	30.420 
01:00	18.3	18.3	18.3	69	9.9	0	3	270	0.00	30.418 
01:05	18.3	18.3	18.3	69	9.9	0	2	248	0.00	30.420 
01:10	18.1	18.1	18.1	69	9.7	0	1	248	0.00	30.421 
01:15	18.0	18.0	18.0	69	9.6	0	0	---	0.00	30.418 
01:20	17.8	17.8	17.8	69	9.4	0	0	---	0.00	30.413 
01:25	17.7	17.7	17.7	70	9.6	0	0	---	0.00	30.409 
01:30	17.5	17.5	17.5	70	9.4	0	0	---	0.00	30.411 
01:35	17.3	17.3	17.3	71	9.5	0	0	---	0.00	30.407 
01:40	17.3	17.3	17.3	72	9.8	0	0	---	0.00	30.408 
01:45	17.2	17.2	17.2	72	9.8	0	0	---	0.00	30.408 
01:50	17.0	17.0	17.0	72	9.6	0	0	---	0.00	30.407 
01:55	16.7	16.7	16.7	72	9.3	0	0	---	0.00	30.407 
02:00	16.5	16.5	16.5	72	9.1	0	0	---	0.00	30.407 
02:05	16.2	16.2	16.2	73	9.1	0	0	---	0.00	30.409 
02:10	16.2	16.2	16.2	74	9.4	0	1	248	0.00	30.394 
02:15	16.2	16.2	16.2	75	9.7	0	1	248	0.00	30.394 
02:20	16.4	16.4	16.4	75	9.9	0	1	248	0.00	30.393 
02:25	16.5	16.5	16.5	75	10.0	0	1	248	0.00	30.395 
02:30	16.7	16.7	16.7	75	10.2	0	1	248	0.00	30.394 
02:35	17.0	17.0	17.0	75	10.5	0	1	248	0.00	30.393 
02:40	17.2	17.2	17.2	74	10.4	0	1	248	0.00	30.393 
02:45	17.5	17.5	17.5	73	10.3	0	1	248	0.00	30.392 
02:50	17.7	17.7	17.7	73	10.5	0	3	90	0.00	30.390 
02:55	17.8	17.8	17.8	73	10.6	0	2	90	0.00	30.393 
03:00	17.8	17.8	17.8	73	10.6	0	1	90	0.00	30.401 
03:05	18.0	18.0	18.0	73	10.8	0	1	90	0.00	30.396 
03:10	18.0	18.0	18.0	73	10.8	0	1	112	0.00	30.402 
03:15	18.0	18.0	18.0	73	10.8	0	2	112	0.00	30.408 
03:20	18.0	18.0	18.0	73	10.8	0	1	112	0.00	30.409 
03:25	18.0	18.0	18.0	73	10.8	0	1	112	0.00	30.407 
03:30	18.0	18.0	18.0	72	10.5	1	2	112	0.00	30.394 
03:35	18.0	18.0	18.0	72	10.5	1	3	112	0.00	30.393 
03:40	18.0	18.0	18.0	72	10.5	0	3	112	0.00	30.395 
03:45	18.0	18.0	18.0	72	10.5	1	3	68	0.00	30.390 
03:50	18.0	18.0	18.0	72	10.5	1	3	112	0.00	30.388 
03:55	18.0	18.0	18.0	72	10.5	0	3	112	0.00	30.389 
04:00	18.1	18.1	18.1	72	10.6	0	1	112	0.00	30.392 
04:05	18.1	18.1	18.1	73	10.9	0	2	112	0.00	30.393 
04:10	18.1	18.1	18.1	72	10.6	1	3	112	0.00	30.393 
04:15	18.1	18.1	18.1	72	10.6	1	4	112	0.00	30.396 
04:20	18.1	18.1	18.1	72	10.6	1	4	68	0.00	30.395 
04:25	18.1	18.1	18.1	72	10.6	1	3	135	0.00	30.394 
04:30	18.3	18.3	18.3	72	10.8	1	4	90	0.00	30.394 
04:35	18.3	18.3	18.3	73	11.1	0	2	90	0.00	30.393 
04:40	18.3	18.3	18.3	72	10.8	1	3	135	0.00	30.388 
04:45	18.3	18.3	18.3	73	11.1	1	4	112	0.00	30.379 
04:50	18.3	18.3	18.3	73	11.1	1	5	112	0.00	30.378 
04:55	18.3	18.3	18.3	73	11.1	1	3	90	0.00	30.378 
05:00	18.3	18.3	18.3	73	11.1	1	4	90	0.00	30.373 
05:05	18.3	18.3	18.3	73	11.1	2	6	90	0.00	30.368 
05:10	18.4	18.4	18.4	74	11.5	1	5	68	0.00	30.363 
05:15	18.4	18.4	18.4	74	11.5	1	3	112	0.00	30.360 
05:20	18.4	18.4	18.4	74	11.5	1	4	90	0.00	30.357 
05:25	18.4	18.4	18.4	75	11.8	1	3	135	0.00	30.355 
05:30	18.6	18.6	18.6	75	12.0	0	3	135	0.00	30.349 
05:35	18.6	18.6	18.6	75	12.0	1	3	112	0.00	30.347 
05:40	18.6	18.6	18.6	75	12.0	1	5	90	0.00	30.344 
05:45	18.6	18.6	18.6	75	12.0	2	5	112	0.00	30.341 
05:50	18.6	18.6	18.6	74	11.7	2	7	90	0.00	30.341 
05:55	18.6	18.6	18.6	74	11.7	1	4	112	0.00	30.345 
06:00	18.8	18.8	18.8	74	11.9	1	3	112	0.00	30.346 
06:05	18.8	18.8	18.8	74	11.9	1	5	90	0.00	30.346 
06:10	18.8	18.8	18.8	74	11.9	1	4	90	0.00	30.347 
06:15	18.8	18.8	18.8	74	11.9	1	3	112	0.00	30.347 
06:20	18.8	18.8	18.8	73	11.6	1	3	112	0.00	30.348 
06:25	18.8	18.8	18.8	73	11.6	1	5	112	0.00	30.346 
06:30	18.8	18.8	18.8	72	11.3	1	4	90	0.00	30.349 
06:35	18.8	18.8	18.8	72	11.3	1	3	135	0.00	30.348 
06:40	18.6	18.6	18.6	72	11.1	2	5	90	0.00	30.349 
06:45	18.6	18.6	18.6	72	11.1	1	6	112	0.00	30.345 
06:50	18.6	18.6	18.6	72	11.1	1	3	112	0.00	30.347 
06:55	18.6	18.6	18.6	73	11.4	1	3	90	0.00	30.348 
07:00	18.6	18.6	18.6	73	11.4	1	2	112	0.00	30.340 
07:05	18.4	18.4	18.4	73	11.2	1	3	112	0.00	30.348 
07:10	18.4	18.4	18.4	73	11.2	1	4	112	0.00	30.348 
07:15	18.4	18.4	18.4	73	11.2	1	3	112	0.00	30.343 
07:20	18.3	18.3	18.3	74	11.4	1	3	112	0.00	30.340 
07:25	18.3	18.3	18.3	74	11.4	1	3	135	0.00	30.342 
07:30	18.1	18.1	18.1	75	11.5	0	2	90	0.00	30.338 
07:35	18.0	18.0	18.0	75	11.4	1	3	112	0.00	30.336 
07:40	17.8	17.8	17.8	75	11.2	0	2	135	0.00	30.335 
07:45	17.8	17.8	17.8	76	11.5	1	2	135	0.00	30.333 
07:50	17.8	17.8	17.8	76	11.5	1	2	112	0.00	30.334 
07:55	17.8	17.8	17.8	77	11.8	0	2	112	0.00	30.334 
08:00	18.0	18.0	18.0	77	12.0	1	3	112	0.00	30.335 
08:05	18.0	18.0	18.0	77	12.0	1	2	112	0.00	30.333 
08:10	18.1	18.1	18.1	77	12.1	1	4	112	0.00	30.333 
08:15	18.3	18.3	18.3	76	12.0	1	3	112	0.00	30.332 
08:20	18.4	18.4	18.4	77	12.4	1	3	112	0.00	30.333 
08:25	18.6	18.6	18.6	77	12.6	1	4	112	0.00	30.332 
08:30	18.6	18.6	18.6	77	12.6	1	4	112	0.00	30.332 
08:35	18.8	18.8	18.8	77	12.8	1	5	112	0.00	30.332 
08:40	18.9	18.9	18.9	77	12.9	1	5	112	0.00	30.330 
08:45	18.9	18.9	18.9	77	12.9	1	4	135	0.00	30.327 
08:50	19.1	19.1	19.1	77	13.1	1	4	135	0.00	30.330 
08:55	19.2	19.2	19.2	77	13.2	1	5	112	0.00	30.327 
09:00	19.4	19.4	19.4	76	13.1	1	4	112	0.00	30.323 
09:05	19.5	19.5	19.5	76	13.2	1	4	112	0.00	30.317 
09:10	19.7	19.7	19.7	76	13.4	1	3	90	0.00	30.320 
09:15	20.0	20.0	20.0	76	13.7	2	5	90	0.00	30.320 
09:20	20.2	20.2	20.2	75	13.6	2	6	90	0.00	30.316 
09:25	20.2	20.2	20.2	75	13.6	3	6	90	0.00	30.314 
09:30	20.3	20.3	20.3	74	13.4	3	5	90	0.00	30.305 
09:35	20.5	20.5	20.5	74	13.6	2	7	90	0.00	30.309 
09:40	20.6	20.6	20.6	73	13.3	2	5	90	0.00	30.312 
09:45	21.0	21.0	21.0	73	13.7	1	4	112	0.00	30.314 
09:50	21.1	21.1	21.1	72	13.5	2	6	90	0.00	30.311 
09:55	21.3	21.3	21.3	72	13.7	2	7	90	0.00	30.304 
10:00	21.6	21.6	21.6	72	14.0	1	5	90	0.00	30.301 
10:05	21.6	21.6	21.6	71	13.7	3	7	90	0.00	30.300 
10:10	21.8	21.8	21.8	70	13.5	3	7	90	0.00	30.303 
10:15	21.8	21.8	21.8	71	13.9	1	3	112	0.00	30.300 
10:20	22.1	22.1	22.1	70	13.8	2	5	90	0.00	30.297 
10:25	22.1	22.1	22.1	69	13.5	3	7	90	0.00	30.293 
10:30	22.2	22.2	22.2	70	13.9	2	9	0	0.00	30.294 
10:35	22.5	22.5	22.5	70	14.2	2	7	90	0.00	30.296 
10:40	22.7	22.7	22.7	69	14.1	2	5	112	0.00	30.296 
10:45	23.0	23.0	23.0	69	14.4	3	6	90	0.00	30.291 
10:50	23.0	17.7	23.0	68	14.0	4	10	90	0.00	30.286 
10:55	23.3	23.3	23.3	68	14.3	3	7	90	0.00	30.273 
11:00	23.5	23.5	23.5	67	14.2	3	7	112	0.00	30.275 
11:05	23.6	23.6	23.6	67	14.3	3	7	90	0.00	30.271 
11:10	24.1	24.1	24.1	67	14.8	2	6	90	0.00	30.266 
11:15	24.5	24.5	24.5	65	14.4	3	7	112	0.00	30.265 
11:20	24.7	24.7	24.7	64	14.3	3	9	90	0.00	30.260 
11:25	24.8	24.8	24.8	64	14.4	2	7	90	0.00	30.252 
11:30	25.0	25.0	25.0	64	14.6	2	6	112	0.00	30.253 
11:35	25.0	20.0	25.0	63	14.2	4	11	90	0.00	30.250 
11:40	25.1	25.1	25.1	64	14.7	2	9	112	0.00	30.244 
11:45	25.3	25.3	25.3	64	14.9	3	6	90	0.00	30.236 
11:50	25.3	25.3	25.3	64	14.9	2	9	90	0.00	30.234 
11:55	25.4	25.4	25.4	65	15.3	2	5	45	0.00	30.234 
12:00	25.7	25.7	25.7	63	14.9	2	7	90	0.00	30.230 
12:05	26.0	26.0	26.0	62	14.8	2	8	90	0.00	30.228 
12:10	26.3	26.3	26.3	61	14.7	2	9	112	0.00	30.227 
12:15	26.6	26.6	26.6	61	15.0	2	6	112	0.00	30.223 
12:20	27.0	27.0	27.0	62	15.7	1	3	135	0.00	30.225 
12:25	27.5	27.5	27.5	60	15.5	2	5	90	0.00	30.219 
12:30	27.5	27.5	27.5	60	15.5	2	6	68	0.00	30.215 
12:35	27.3	27.3	27.3	59	14.9	2	5	90	0.00	30.213 
12:40	27.3	27.3	27.3	60	15.3	2	6	90	0.00	30.211 
12:45	27.5	27.5	27.5	58	14.7	2	5	112	0.00	30.202 
12:50	27.8	27.8	27.8	58	15.0	2	5	90	0.00	30.198 
12:55	27.8	27.8	27.8	57	14.6	2	6	90	0.00	30.195 
13:00	27.8	27.8	27.8	57	14.6	2	6	90	0.00	30.183 
13:05	27.9	27.9	27.9	56	14.3	2	6	68	0.00	30.184 
13:10	27.9	27.9	27.9	57	14.7	2	5	90	0.00	30.181 
13:15	28.1	28.1	28.1	57	14.9	1	4	112	0.00	30.175 
13:20	28.4	28.4	28.4	56	14.7	1	4	68	0.00	30.172 
13:25	28.5	28.5	28.5	57	15.2	1	5	338	0.00	30.169 
13:30	28.5	28.5	28.5	57	15.2	2	5	112	0.00	30.161 
13:35	28.5	28.5	28.5	57	15.2	2	6	112	0.00	30.158 
13:40	28.7	28.7	28.7	57	15.4	2	4	90	0.00	30.152 
13:45	28.7	28.7	28.7	57	15.4	2	4	112	0.00	30.149 
13:50	28.7	28.7	28.7	55	14.6	2	6	112	0.00	30.146 
13:55	28.7	28.7	28.7	57	15.4	2	4	90	0.00	30.137 
14:00	28.7	28.7	28.7	57	15.4	2	5	90	0.00	30.134 
14:05	28.8	28.8	28.8	56	15.1	2	5	112	0.00	30.135 
14:10	29.0	29.0	29.0	57	15.7	1	4	90	0.00	30.134 
14:15	29.1	29.1	29.1	56	15.4	2	4	90	0.00	30.132 
14:20	29.1	29.1	29.1	56	15.4	2	5	90	0.00	30.123 
14:25	29.1	29.1	29.1	55	15.0	2	4	90	0.00	30.119 
14:30	29.1	29.1	29.1	55	15.0	2	6	90	0.00	30.115 
14:35	29.3	29.3	29.3	56	15.6	1	3	112	0.00	30.113 
14:40	29.4	29.4	29.4	54	14.8	2	4	90	0.00	30.105 
14:45	29.5	29.5	29.5	53	14.5	2	5	68	0.00	30.102 
14:50	29.5	29.5	29.5	54	14.9	2	10	112	0.00	30.100 
14:55	29.7	29.7	29.7	54	15.1	2	5	112	0.00	30.097 
15:00	29.7	29.7	29.7	52	14.3	3	10	90	0.00	30.088 
15:05	29.8	29.8	29.8	51	13.9	3	9	90	0.00	30.086 
15:10	30.0	30.0	30.0	51	14.1	2	5	90	0.00	30.081 
15:15	30.0	30.0	30.0	50	13.6	2	7	90	0.00	30.076 
15:20	30.0	30.0	30.0	51	14.1	2	6	112	0.00	30.072 
15:25	30.0	25.8	30.0	50	13.6	4	7	90	0.00	30.070 
15:30	30.1	30.1	30.1	51	14.2	2	5	90	0.00	30.071 
15:35	30.1	30.1	30.1	52	14.6	2	5	68	0.00	30.071 
15:40	30.3	30.3	30.3	52	14.8	2	6	112	0.00	30.070 
15:45	30.1	30.1	30.1	52	14.6	2	7	90	0.00	30.067 
15:50	30.1	30.1	30.1	52	14.6	2	5	112	0.00	30.055 
15:55	30.1	30.1	30.1	52	14.6	2	6	112	0.00	30.051 
16:00	30.1	30.1	30.1	52	14.6	2	6	90	0.00	30.046 
16:05	30.3	30.3	30.3	51	14.4	3	6	90	0.00	30.041 
16:10	30.3	30.3	30.3	51	14.4	2	5	90	0.00	30.040 
16:15	30.4	30.4	30.4	52	14.9	1	4	112	0.00	30.037 
16:20	30.4	30.4	30.4	51	14.5	2	5	90	0.00	30.038 
16:25	30.6	30.6	30.6	51	14.6	2	6	90	0.00	30.038 
16:30	30.6	30.6	30.6	51	14.6	2	5	90	0.00	30.038 
16:35	30.6	30.6	30.6	51	14.6	2	5	112	0.00	30.026 
16:40	30.6	30.6	30.6	51	14.6	2	5	112	0.00	30.016 
16:45	30.6	30.6	30.6	52	15.1	2	7	112	0.00	30.008 
16:50	30.6	30.6	30.6	51	14.6	2	5	112	0.00	30.006 
16:55	30.4	26.2	30.4	50	14.0	4	9	90	0.00	30.006 
17:00	30.4	30.4	30.4	50	14.0	3	9	90	0.00	30.007 
17:05	30.4	30.4	30.4	50	14.0	2	7	90	0.00	30.005 
17:10	30.4	30.4	30.4	50	14.0	2	6	90	0.00	30.004 
17:15	30.3	30.3	30.3	50	13.9	2	5	112	0.00	30.002 
17:20	30.3	30.3	30.3	50	13.9	2	6	135	0.00	29.996 
17:25	30.3	30.3	30.3	51	14.4	2	6	112	0.00	29.992 
17:30	30.3	30.3	30.3	50	13.9	2	7	112	0.00	29.992 
17:35	30.3	30.3	30.3	51	14.4	2	5	90	0.00	29.989 
17:40	30.1	30.1	30.1	51	14.2	2	4	112	0.00	29.978 
17:45	30.1	30.1	30.1	52	14.6	2	6	90	0.00	29.974 
17:50	30.1	30.1	30.1	52	14.6	2	6	112	0.00	29.968 
17:55	30.1	30.1	30.1	52	14.6	2	5	90	0.00	29.964 
18:00	30.1	30.1	30.1	52	14.6	2	7	112	0.00	29.965 
18:05	30.1	30.1	30.1	53	15.1	2	5	112	0.00	29.955 
18:10	30.1	30.1	30.1	53	15.1	2	6	90	0.00	29.948 
18:15	30.1	30.1	30.1	53	15.1	2	6	90	0.00	29.943 
18:20	30.1	30.1	30.1	53	15.1	2	5	90	0.00	29.944 
18:25	30.1	30.1	30.1	53	15.1	2	5	90	0.00	29.944 
18:30	30.3	30.3	30.3	53	15.2	2	7	90	0.00	29.941 
18:35	30.3	30.3	30.3	53	15.2	2	7	112	0.00	29.941 
18:40	30.4	30.4	30.4	52	14.9	2	6	112	0.00	29.940 
18:45	30.4	30.4	30.4	52	14.9	2	4	90	0.00	29.941 
18:50	30.4	30.4	30.4	52	14.9	2	6	112	0.00	29.940 
18:55	30.6	30.6	30.6	51	14.6	2	7	90	0.00	29.937 
19:00	30.6	30.6	30.6	51	14.6	2	7	90	0.00	29.933 
19:05	30.6	30.6	30.6	51	14.6	1	4	90	0.00	29.937 
19:10	30.6	30.6	30.6	51	14.6	2	4	135	0.00	29.932 
19:15	30.7	30.7	30.7	51	14.7	2	5	90	0.00	29.930 
19:20	30.7	30.7	30.7	51	14.7	2	4	90	0.00	29.928 
19:25	30.7	30.7	30.7	51	14.7	2	6	112	0.00	29.929 
19:30	30.7	30.7	30.7	51	14.7	2	7	112	0.00	29.928 
19:35	30.9	30.9	30.9	51	14.9	2	9	112	0.00	29.927 
19:40	30.9	30.9	30.9	51	14.9	1	5	90	0.00	29.928 
19:45	30.9	30.9	30.9	52	15.4	1	3	90	0.00	29.928 
19:50	30.9	30.9	30.9	52	15.4	1	4	90	0.00	29.929 
19:55	30.9	30.9	30.9	52	15.4	1	2	90	0.00	29.928 
20:00	30.9	30.9	30.9	51	14.9	1	3	112	0.00	29.923 
20:05	31.0	31.0	31.0	51	15.0	2	6	112	0.00	29.916 
20:10	31.0	31.0	31.0	52	15.5	1	4	68	0.00	29.917 
20:15	31.0	31.0	31.0	53	15.9	1	5	90	0.00	29.911 
20:20	30.9	30.9	30.9	53	15.8	1	3	45	0.00	29.915 
20:25	30.9	30.9	30.9	53	15.8	1	3	292	0.00	29.915 
20:30	30.9	30.9	30.9	53	15.8	0	3	292	0.00	29.911 
20:35	30.9	30.9	30.9	53	15.8	1	3	68	0.00	29.911 
20:40	30.9	30.9	30.9	54	16.2	1	3	292	0.00	29.912 
20:45	30.9	30.9	30.9	53	15.8	1	4	248	0.00	29.912 
20:50	31.0	31.0	31.0	53	15.9	1	4	270	0.00	29.910 
20:55	30.9	30.9	30.9	54	16.2	1	4	270	0.00	29.905 
21:00	30.9	30.9	30.9	54	16.2	1	3	248	0.00	29.908 
21:05	31.0	31.0	31.0	54	16.3	1	2	248	0.00	29.896 
21:10	31.0	31.0	31.0	54	16.3	1	3	248	0.00	29.893 
21:15	31.2	31.2	31.2	54	16.5	1	3	292	0.00	29.879 
21:20	31.2	31.2	31.2	54	16.5	1	3	248	0.00	29.878 
21:25	31.2	31.2	31.2	54	16.5	1	4	248	0.00	29.877 
21:30	31.3	31.3	31.3	54	16.6	1	4	270	0.00	29.877 
21:35	31.5	31.5	31.5	53	16.4	1	5	248	0.00	29.879 
21:40	31.5	31.5	31.5	54	16.8	1	3	248	0.00	29.875 
21:45	31.6	31.6	31.6	53	16.5	1	5	248	0.00	29.873 
21:50	31.8	31.8	31.8	53	16.6	1	3	248	0.00	29.871 
21:55	31.8	31.8	31.8	53	16.6	1	3	248	0.00	29.865 
22:00	31.9	31.9	31.9	53	16.7	2	6	248	0.00	29.861 
22:05	31.9	31.9	31.9	53	16.7	2	6	270	0.00	29.860 
22:10	32.1	32.1	32.1	53	16.9	1	4	248	0.00	29.860 
22:15	32.1	32.1	32.1	53	16.9	1	5	248	0.00	29.858 
22:20	32.2	32.2	32.2	53	17.0	2	6	248	0.00	29.859 
22:25	32.4	32.4	32.4	53	17.2	3	7	248	0.00	29.859 
22:30	32.4	32.4	32.4	53	17.2	2	7	248	0.00	29.859 
22:35	32.5	32.5	32.5	53	17.3	3	6	248	0.00	29.858 
22:40	32.5	32.5	32.5	53	17.3	2	5	248	0.00	29.859 
22:45	32.5	32.5	32.5	53	17.3	2	6	248	0.00	29.858 
22:50	32.5	32.5	32.5	53	17.3	2	6	248	0.00	29.856 
22:55	32.5	32.5	32.5	54	17.7	2	4	248	0.00	29.852 
23:00	32.5	32.5	32.5	54	17.7	1	5	248	0.00	29.843 
23:05	32.5	32.5	32.5	54	17.7	2	6	248	0.00	29.840 
23:10	32.5	32.5	32.5	54	17.7	1	5	248	0.00	29.837 
23:15	32.5	32.5	32.5	54	17.7	2	5	248	0.00	29.832 
23:20	32.7	32.7	32.7	54	17.9	2	5	248	0.00	29.834 
23:25	32.7	32.7	32.7	54	17.9	2	6	248	0.00	29.834 
23:30	32.7	32.7	32.7	54	17.9	2	6	248	0.00	29.837 
23:35	32.7	32.7	32.7	53	17.5	2	6	248	0.00	29.839 
23:40	32.8	32.8	32.8	53	17.6	3	7	248	0.00	29.839 
23:45	32.8	32.8	32.8	53	17.6	2	9	248	0.00	29.841 
23:50	32.9	32.9	32.9	52	17.2	3	11	248	0.00	29.842 
23:55	33.1	33.1	33.1	51	17.0	3	10	248	0.00	29.843 

CoCoRaHS
IN-AL-39
A2 Web Hosting
Creative Commons License
GoDaddy
search engine by freefind advanced

loaded 2018-11-20 02:49:56 • last modified 2010-11-18 10:43:29
Privacy PolicyDisclaimer
• wx.awcolley.com is powered by PmWiki v.2002016 •
• all content (unless otherwise noted) © 2018 A W Colley